Cosco Aden — VRKF9 — position and weather

sailwx.info

Track history (hours):
 
Tides and Currents Weather Stations Pressure Air Temp Water Temp Dewpoint Dewpoint Depression Visibility Wind Speed Wind Dir Waves Ship Positions

Cosco Aden

Last reported at 2016-Feb-02 02:17 UTC. Time now 2016-Feb-09 03:24 UTC.
Position N 30°28' E 123°04'.

Length 261 m; draft 11.6 m.

Type: Other ship. MMSI: 477765900.

Date/timePositionNaut miles runAvg speedWind from/ knotsBaromVisibWave heightAir tempDewpointWater temp
2016-Feb-02 02:17N 30°28' E 123°04'1318.1
2016-Feb-02 01:33N 30°28' E 122°49'3416.9
2016-Feb-01 23:33N 30°34' E 122°10'6 0.7
2016-Feb-01 15:29N 30°37' E 122°04'0 0.0
2016-Feb-01 14:06N 30°37' E 122°04'0 0.9
2016-Feb-01 13:33N 30°36' E 122°04'3 3.3
2016-Feb-01 12:32N 30°35' E 122°07'10 9.8
2016-Feb-01 11:31N 30°33' E 122°19'8 8.4
2016-Feb-01 10:33N 30°32' E 122°28'5 0.1
2016-Jan-30 14:24N 30°31' E 122°34'1111.2
2016-Jan-30 13:24N 30°24' E 122°44'910.2
2016-Jan-30 12:33N 30°16' E 122°49'27 8.9
2016-Jan-30 09:33N 29°51' E 122°39'10 9.9
2016-Jan-30 08:33N 29°44' E 122°30'1111.0
2016-Jan-30 07:32N 29°46' E 122°18'1313.4
2016-Jan-30 06:33N 29°55' E 122°07'4 0.3
2016-Jan-29 19:27N 29°53' E 122°03'0 0.1
2016-Jan-29 18:33N 29°53' E 122°03'2 2.0
2016-Jan-29 17:33N 29°55' E 122°05'8 8.2
2016-Jan-29 16:33N 29°50' E 122°13'1010.6
2016-Jan-29 15:33N 29°45' E 122°23'0 0.0
2016-Jan-29 01:27N 29°45' E 122°23'6 6.6
2016-Jan-29 00:32N 29°40' E 122°27'9 9.2
2016-Jan-28 23:33N 29°32' E 122°31'8 8.4
2016-Jan-28 22:33N 29°23' E 122°31'9 8.7
2016-Jan-28 21:29N 29°14' E 122°31'33010.3
2016-Jan-27 13:33N 24°36' E 119°12'1612.2
2016-Jan-27 12:17N 24°25' E 118°59'4311.3
2016-Jan-27 08:28N 23°56' E 118°24'24615.4
2016-Jan-26 16:30N 22°06' E 114°25'2110.7
2016-Jan-26 14:33N 22°19' E 114°07'1 0.7
2016-Jan-26 13:30N 22°20' E 114°08'0 0.0
2016-Jan-26 12:30N 22°20' E 114°08'0 0.0
2016-Jan-26 11:33N 22°20' E 114°08'0 0.0
2016-Jan-26 10:33N 22°20' E 114°08'0 0.0
2016-Jan-26 09:30N 22°20' E 114°08'0 0.0
2016-Jan-26 08:33N 22°20' E 114°08'0 0.0
2016-Jan-26 07:33N 22°20' E 114°08'0 0.0
2016-Jan-26 06:33N 22°20' E 114°08'0 0.0
2016-Jan-26 05:33N 22°20' E 114°08'3 2.7
2016-Jan-26 04:32N 22°19' E 114°05'0 0.2
2016-Jan-26 03:32N 22°19' E 114°05'6 5.9
2016-Jan-26 02:31N 22°21' E 113°59'3 0.3
2016-Jan-25 14:34N 22°21' E 114°03'1311.2
2016-Jan-25 13:25N 22°11' E 114°11'910.6
2016-Jan-25 12:32N 22°02' E 114°09'0 0.0
2016-Jan-24 23:28N 22°02' E 114°09'0 0.0
2016-Jan-24 22:28N 22°02' E 114°09'0 0.0
2016-Jan-24 03:10N 22°02' E 114°09'0 0.0
2016-Jan-23 23:22N 22°02' E 114°09'1 0.1
2016-Jan-23 15:29N 22°01' E 114°08'  
Track history (hours):
 
Tides and Currents Weather Stations Pressure Air Temp Water Temp Dewpoint Dewpoint Depression Visibility Wind Speed Wind Dir Waves Ship Positions

Cosco Aden

Last reported at 2016-Feb-02 02:17 UTC. Time now 2016-Feb-09 03:24 UTC.
Position N 30°28' E 123°04'.

Length 261 m; draft 11.6 m.

Type: Other ship. MMSI: 477765900.

Date/timePositionNaut miles runAvg speedWind from/ knotsBaromVisibWave heightAir tempDewpointWater temp
2016-Feb-02 02:17N 30°28' E 123°04'1318.1
2016-Feb-02 01:33N 30°28' E 122°49'3416.9
2016-Feb-01 23:33N 30°34' E 122°10'6 0.7
2016-Feb-01 15:29N 30°37' E 122°04'0 0.0
2016-Feb-01 14:06N 30°37' E 122°04'0 0.9
2016-Feb-01 13:33N 30°36' E 122°04'3 3.3
2016-Feb-01 12:32N 30°35' E 122°07'10 9.8
2016-Feb-01 11:31N 30°33' E 122°19'8 8.4
2016-Feb-01 10:33N 30°32' E 122°28'5 0.1
2016-Jan-30 14:24N 30°31' E 122°34'1111.2
2016-Jan-30 13:24N 30°24' E 122°44'910.2
2016-Jan-30 12:33N 30°16' E 122°49'27 8.9
2016-Jan-30 09:33N 29°51' E 122°39'10 9.9
2016-Jan-30 08:33N 29°44' E 122°30'1111.0
2016-Jan-30 07:32N 29°46' E 122°18'1313.4
2016-Jan-30 06:33N 29°55' E 122°07'4 0.3
2016-Jan-29 19:27N 29°53' E 122°03'0 0.1
2016-Jan-29 18:33N 29°53' E 122°03'2 2.0
2016-Jan-29 17:33N 29°55' E 122°05'8 8.2
2016-Jan-29 16:33N 29°50' E 122°13'1010.6
2016-Jan-29 15:33N 29°45' E 122°23'0 0.0
2016-Jan-29 01:27N 29°45' E 122°23'6 6.6
2016-Jan-29 00:32N 29°40' E 122°27'9 9.2
2016-Jan-28 23:33N 29°32' E 122°31'8 8.4
2016-Jan-28 22:33N 29°23' E 122°31'9 8.7
2016-Jan-28 21:29N 29°14' E 122°31'33010.3
2016-Jan-27 13:33N 24°36' E 119°12'1612.2
2016-Jan-27 12:17N 24°25' E 118°59'4311.3
2016-Jan-27 08:28N 23°56' E 118°24'24615.4
2016-Jan-26 16:30N 22°06' E 114°25'2110.7
2016-Jan-26 14:33N 22°19' E 114°07'1 0.7
2016-Jan-26 13:30N 22°20' E 114°08'0 0.0
2016-Jan-26 12:30N 22°20' E 114°08'0 0.0
2016-Jan-26 11:33N 22°20' E 114°08'0 0.0
2016-Jan-26 10:33N 22°20' E 114°08'0 0.0
2016-Jan-26 09:30N 22°20' E 114°08'0 0.0
2016-Jan-26 08:33N 22°20' E 114°08'0 0.0
2016-Jan-26 07:33N 22°20' E 114°08'0 0.0
2016-Jan-26 06:33N 22°20' E 114°08'0 0.0
2016-Jan-26 05:33N 22°20' E 114°08'3 2.7
2016-Jan-26 04:32N 22°19' E 114°05'0 0.2
2016-Jan-26 03:32N 22°19' E 114°05'6 5.9
2016-Jan-26 02:31N 22°21' E 113°59'3 0.3
2016-Jan-25 14:34N 22°21' E 114°03'1311.2
2016-Jan-25 13:25N 22°11' E 114°11'910.6
2016-Jan-25 12:32N 22°02' E 114°09'0 0.0
2016-Jan-24 23:28N 22°02' E 114°09'0 0.0
2016-Jan-24 22:28N 22°02' E 114°09'0 0.0
2016-Jan-24 03:10N 22°02' E 114°09'0 0.0
2016-Jan-23 23:22N 22°02' E 114°09'1 0.1
2016-Jan-23 15:29N 22°01' E 114°08'  

Dump ship's entire track history